sensor_id;sensor_type;location;lat;lon;timestamp;temperature;humidity
74809;DHT22;63338;39.544;2.596;2023-08-07T00:01:15;25.60;75.70
74809;DHT22;63338;39.544;2.596;2023-08-07T00:03:41;25.80;76.00
74809;DHT22;63338;39.544;2.596;2023-08-07T00:06:07;25.70;75.60
74809;DHT22;63338;39.544;2.596;2023-08-07T00:08:33;25.70;75.30
74809;DHT22;63338;39.544;2.596;2023-08-07T00:11:09;25.80;74.70
74809;DHT22;63338;39.544;2.596;2023-08-07T00:13:36;25.70;75.70
74809;DHT22;63338;39.544;2.596;2023-08-07T00:16:03;25.70;75.10
74809;DHT22;63338;39.544;2.596;2023-08-07T00:18:29;25.70;75.60
74809;DHT22;63338;39.544;2.596;2023-08-07T00:20:55;25.70;75.20
74809;DHT22;63338;39.544;2.596;2023-08-07T00:23:21;25.70;74.80
74809;DHT22;63338;39.544;2.596;2023-08-07T00:25:48;25.70;75.10
74809;DHT22;63338;39.544;2.596;2023-08-07T00:28:14;25.70;75.00
74809;DHT22;63338;39.544;2.596;2023-08-07T00:30:41;25.70;75.10
74809;DHT22;63338;39.544;2.596;2023-08-07T00:33:07;25.60;74.10
74809;DHT22;63338;39.544;2.596;2023-08-07T00:35:33;25.70;74.60
74809;DHT22;63338;39.544;2.596;2023-08-07T00:37:59;25.70;74.70
74809;DHT22;63338;39.544;2.596;2023-08-07T00:40:25;25.70;75.00
74809;DHT22;63338;39.544;2.596;2023-08-07T00:42:52;25.60;74.30
74809;DHT22;63338;39.544;2.596;2023-08-07T00:45:18;25.60;74.80
74809;DHT22;63338;39.544;2.596;2023-08-07T00:47:44;25.60;74.40
74809;DHT22;63338;39.544;2.596;2023-08-07T00:50:10;25.70;74.60
74809;DHT22;63338;39.544;2.596;2023-08-07T00:52:37;25.60;74.10
74809;DHT22;63338;39.544;2.596;2023-08-07T00:55:04;25.60;73.80
74809;DHT22;63338;39.544;2.596;2023-08-07T00:57:30;25.60;74.30
74809;DHT22;63338;39.544;2.596;2023-08-07T00:59:58;25.70;73.80
74809;DHT22;63338;39.544;2.596;2023-08-07T01:02:25;25.50;72.90
74809;DHT22;63338;39.544;2.596;2023-08-07T01:04:51;25.60;73.00
74809;DHT22;63338;39.544;2.596;2023-08-07T01:07:17;25.60;73.20
74809;DHT22;63338;39.544;2.596;2023-08-07T01:09:43;25.60;72.90
74809;DHT22;63338;39.544;2.596;2023-08-07T01:12:30;25.50;73.50
74809;DHT22;63338;39.544;2.596;2023-08-07T01:15:04;25.60;73.00
74809;DHT22;63338;39.544;2.596;2023-08-07T01:17:33;25.50;72.90
74809;DHT22;63338;39.544;2.596;2023-08-07T01:20:00;25.60;72.50
74809;DHT22;63338;39.544;2.596;2023-08-07T01:22:28;25.50;72.30
74809;DHT22;63338;39.544;2.596;2023-08-07T01:24:54;25.60;71.90
74809;DHT22;63338;39.544;2.596;2023-08-07T01:35:44;25.50;71.10
74809;DHT22;63338;39.544;2.596;2023-08-07T01:38:12;25.50;71.30
74809;DHT22;63338;39.544;2.596;2023-08-07T01:40:39;25.50;70.60
74809;DHT22;63338;39.544;2.596;2023-08-07T01:43:06;25.50;70.30
74809;DHT22;63338;39.544;2.596;2023-08-07T01:45:32;25.40;70.10
74809;DHT22;63338;39.544;2.596;2023-08-07T01:47:59;25.40;70.50
74809;DHT22;63338;39.544;2.596;2023-08-07T01:50:25;25.40;69.80
74809;DHT22;63338;39.544;2.596;2023-08-07T01:52:52;25.40;70.10
74809;DHT22;63338;39.544;2.596;2023-08-07T01:55:20;25.40;69.60
74809;DHT22;63338;39.544;2.596;2023-08-07T01:57:46;25.30;68.90
74809;DHT22;63338;39.544;2.596;2023-08-07T02:00:13;25.30;68.70
74809;DHT22;63338;39.544;2.596;2023-08-07T02:02:39;25.40;69.50
74809;DHT22;63338;39.544;2.596;2023-08-07T02:05:05;25.40;69.30
74809;DHT22;63338;39.544;2.596;2023-08-07T02:07:32;25.30;69.30
74809;DHT22;63338;39.544;2.596;2023-08-07T02:09:58;25.30;68.50
74809;DHT22;63338;39.544;2.596;2023-08-07T02:12:25;25.20;67.60
74809;DHT22;63338;39.544;2.596;2023-08-07T02:14:52;25.30;67.80
74809;DHT22;63338;39.544;2.596;2023-08-07T02:17:21;25.20;68.10
74809;DHT22;63338;39.544;2.596;2023-08-07T02:19:48;25.20;67.80
74809;DHT22;63338;39.544;2.596;2023-08-07T02:22:14;25.30;67.90
74809;DHT22;63338;39.544;2.596;2023-08-07T02:24:40;25.20;68.90
74809;DHT22;63338;39.544;2.596;2023-08-07T02:27:07;25.20;69.20
74809;DHT22;63338;39.544;2.596;2023-08-07T02:29:33;25.20;68.70
74809;DHT22;63338;39.544;2.596;2023-08-07T02:32:03;25.20;69.10
74809;DHT22;63338;39.544;2.596;2023-08-07T02:34:30;25.20;68.10
74809;DHT22;63338;39.544;2.596;2023-08-07T02:36:56;25.20;68.50
74809;DHT22;63338;39.544;2.596;2023-08-07T02:39:22;25.10;68.30
74809;DHT22;63338;39.544;2.596;2023-08-07T02:41:48;25.10;67.10
74809;DHT22;63338;39.544;2.596;2023-08-07T02:44:14;25.10;68.70
74809;DHT22;63338;39.544;2.596;2023-08-07T02:46:43;25.20;67.70
74809;DHT22;63338;39.544;2.596;2023-08-07T02:49:09;25.10;67.30
74809;DHT22;63338;39.544;2.596;2023-08-07T02:51:35;25.10;67.40
74809;DHT22;63338;39.544;2.596;2023-08-07T02:54:02;25.10;68.40
74809;DHT22;63338;39.544;2.596;2023-08-07T02:56:28;25.00;67.70
74809;DHT22;63338;39.544;2.596;2023-08-07T02:58:54;25.00;67.30
74809;DHT22;63338;39.544;2.596;2023-08-07T03:01:20;25.00;66.80
74809;DHT22;63338;39.544;2.596;2023-08-07T03:03:47;25.00;67.40
74809;DHT22;63338;39.544;2.596;2023-08-07T03:06:13;24.90;66.60
74809;DHT22;63338;39.544;2.596;2023-08-07T03:08:39;25.00;67.30
74809;DHT22;63338;39.544;2.596;2023-08-07T03:11:05;25.00;66.80
74809;DHT22;63338;39.544;2.596;2023-08-07T03:13:31;24.90;66.60
74809;DHT22;63338;39.544;2.596;2023-08-07T03:16:05;24.90;67.30
74809;DHT22;63338;39.544;2.596;2023-08-07T03:18:33;24.90;67.40
74809;DHT22;63338;39.544;2.596;2023-08-07T03:21:00;24.80;66.80
74809;DHT22;63338;39.544;2.596;2023-08-07T03:23:27;24.90;66.30
74809;DHT22;63338;39.544;2.596;2023-08-07T03:26:09;24.80;66.40
74809;DHT22;63338;39.544;2.596;2023-08-07T03:28:36;24.90;66.50
74809;DHT22;63338;39.544;2.596;2023-08-07T03:31:03;24.80;66.30
74809;DHT22;63338;39.544;2.596;2023-08-07T03:33:29;24.80;65.70
74809;DHT22;63338;39.544;2.596;2023-08-07T03:35:55;24.80;66.20
74809;DHT22;63338;39.544;2.596;2023-08-07T03:38:21;24.70;66.40
74809;DHT22;63338;39.544;2.596;2023-08-07T03:40:47;24.80;65.90
74809;DHT22;63338;39.544;2.596;2023-08-07T03:43:13;24.80;66.00
74809;DHT22;63338;39.544;2.596;2023-08-07T03:45:40;24.80;66.20
74809;DHT22;63338;39.544;2.596;2023-08-07T03:48:06;24.70;66.10
74809;DHT22;63338;39.544;2.596;2023-08-07T03:50:32;24.70;65.70
74809;DHT22;63338;39.544;2.596;2023-08-07T03:53:00;24.70;66.30
74809;DHT22;63338;39.544;2.596;2023-08-07T03:55:27;24.60;66.20
74809;DHT22;63338;39.544;2.596;2023-08-07T03:57:53;24.60;65.90
74809;DHT22;63338;39.544;2.596;2023-08-07T04:00:19;24.60;66.40
74809;DHT22;63338;39.544;2.596;2023-08-07T04:02:46;24.60;65.90
74809;DHT22;63338;39.544;2.596;2023-08-07T04:05:12;24.60;66.00
74809;DHT22;63338;39.544;2.596;2023-08-07T04:07:38;24.60;66.30
74809;DHT22;63338;39.544;2.596;2023-08-07T04:10:05;24.50;66.00
74809;DHT22;63338;39.544;2.596;2023-08-07T04:12:31;24.60;66.00
74809;DHT22;63338;39.544;2.596;2023-08-07T04:14:58;24.50;66.10
74809;DHT22;63338;39.544;2.596;2023-08-07T04:17:24;24.50;66.40
74809;DHT22;63338;39.544;2.596;2023-08-07T04:19:49;24.60;66.20
74809;DHT22;63338;39.544;2.596;2023-08-07T04:22:15;24.50;66.20
74809;DHT22;63338;39.544;2.596;2023-08-07T04:24:44;24.50;66.10
74809;DHT22;63338;39.544;2.596;2023-08-07T04:27:10;24.50;66.40
74809;DHT22;63338;39.544;2.596;2023-08-07T04:29:36;24.50;67.40
74809;DHT22;63338;39.544;2.596;2023-08-07T04:32:02;24.40;66.60
74809;DHT22;63338;39.544;2.596;2023-08-07T04:34:28;24.50;65.70
74809;DHT22;63338;39.544;2.596;2023-08-07T04:36:54;24.50;66.30
74809;DHT22;63338;39.544;2.596;2023-08-07T04:39:22;24.40;66.50
74809;DHT22;63338;39.544;2.596;2023-08-07T04:41:48;24.40;66.50
74809;DHT22;63338;39.544;2.596;2023-08-07T04:44:16;24.30;66.70
74809;DHT22;63338;39.544;2.596;2023-08-07T04:46:42;24.40;66.50
74809;DHT22;63338;39.544;2.596;2023-08-07T04:49:08;24.30;66.50
74809;DHT22;63338;39.544;2.596;2023-08-07T04:51:34;24.40;67.00
74809;DHT22;63338;39.544;2.596;2023-08-07T04:54:00;24.40;66.10
74809;DHT22;63338;39.544;2.596;2023-08-07T04:56:26;24.40;65.80
74809;DHT22;63338;39.544;2.596;2023-08-07T04:58:52;24.40;66.10
74809;DHT22;63338;39.544;2.596;2023-08-07T05:01:18;24.30;65.80
74809;DHT22;63338;39.544;2.596;2023-08-07T05:03:45;24.40;66.00
74809;DHT22;63338;39.544;2.596;2023-08-07T05:06:11;24.40;65.80
74809;DHT22;63338;39.544;2.596;2023-08-07T05:08:36;24.40;65.90
74809;DHT22;63338;39.544;2.596;2023-08-07T05:11:03;24.40;65.90
74809;DHT22;63338;39.544;2.596;2023-08-07T05:13:29;24.40;65.60
74809;DHT22;63338;39.544;2.596;2023-08-07T05:15:55;24.30;65.90
74809;DHT22;63338;39.544;2.596;2023-08-07T05:18:23;24.30;66.20
74809;DHT22;63338;39.544;2.596;2023-08-07T05:20:49;24.30;65.80
74809;DHT22;63338;39.544;2.596;2023-08-07T05:23:15;24.30;67.00
74809;DHT22;63338;39.544;2.596;2023-08-07T05:25:46;24.40;66.00
74809;DHT22;63338;39.544;2.596;2023-08-07T05:28:15;24.30;67.00
74809;DHT22;63338;39.544;2.596;2023-08-07T05:30:41;24.30;66.00
74809;DHT22;63338;39.544;2.596;2023-08-07T05:33:07;24.30;66.00
74809;DHT22;63338;39.544;2.596;2023-08-07T05:35:33;24.40;65.40
74809;DHT22;63338;39.544;2.596;2023-08-07T05:37:59;24.40;65.70
74809;DHT22;63338;39.544;2.596;2023-08-07T05:40:25;24.40;65.90
74809;DHT22;63338;39.544;2.596;2023-08-07T05:42:51;24.50;65.70
74809;DHT22;63338;39.544;2.596;2023-08-07T05:45:17;24.50;65.80
74809;DHT22;63338;39.544;2.596;2023-08-07T05:47:43;24.50;65.20
74809;DHT22;63338;39.544;2.596;2023-08-07T05:50:09;24.50;65.40
74809;DHT22;63338;39.544;2.596;2023-08-07T05:52:35;24.60;65.80
74809;DHT22;63338;39.544;2.596;2023-08-07T05:55:01;24.60;65.40
74809;DHT22;63338;39.544;2.596;2023-08-07T05:57:33;24.60;65.60
74809;DHT22;63338;39.544;2.596;2023-08-07T06:00:08;24.70;66.30
74809;DHT22;63338;39.544;2.596;2023-08-07T06:02:40;24.70;66.40
74809;DHT22;63338;39.544;2.596;2023-08-07T06:05:06;24.80;65.40
74809;DHT22;63338;39.544;2.596;2023-08-07T06:07:36;24.90;65.00
74809;DHT22;63338;39.544;2.596;2023-08-07T06:10:02;24.90;65.40
74809;DHT22;63338;39.544;2.596;2023-08-07T06:12:28;24.90;65.60
74809;DHT22;63338;39.544;2.596;2023-08-07T06:14:55;25.00;65.20
74809;DHT22;63338;39.544;2.596;2023-08-07T06:17:21;25.10;64.40
74809;DHT22;63338;39.544;2.596;2023-08-07T06:19:47;25.10;64.20
74809;DHT22;63338;39.544;2.596;2023-08-07T06:22:14;25.10;64.60
74809;DHT22;63338;39.544;2.596;2023-08-07T06:24:40;25.20;65.30
74809;DHT22;63338;39.544;2.596;2023-08-07T06:27:06;25.20;65.00
74809;DHT22;63338;39.544;2.596;2023-08-07T06:29:32;25.30;65.40
74809;DHT22;63338;39.544;2.596;2023-08-07T06:31:58;25.30;64.30
74809;DHT22;63338;39.544;2.596;2023-08-07T06:34:25;25.30;64.20
74809;DHT22;63338;39.544;2.596;2023-08-07T06:36:51;25.50;64.10
74809;DHT22;63338;39.544;2.596;2023-08-07T06:39:18;25.50;65.20
74809;DHT22;63338;39.544;2.596;2023-08-07T06:41:44;25.50;64.70
74809;DHT22;63338;39.544;2.596;2023-08-07T06:44:14;25.50;64.00
74809;DHT22;63338;39.544;2.596;2023-08-07T06:46:40;25.60;64.00
74809;DHT22;63338;39.544;2.596;2023-08-07T06:49:07;25.70;63.30
74809;DHT22;63338;39.544;2.596;2023-08-07T06:51:33;25.60;64.60
74809;DHT22;63338;39.544;2.596;2023-08-07T06:53:59;25.80;63.80
74809;DHT22;63338;39.544;2.596;2023-08-07T06:56:25;25.80;65.10
74809;DHT22;63338;39.544;2.596;2023-08-07T06:58:51;25.80;64.40
74809;DHT22;63338;39.544;2.596;2023-08-07T07:01:18;25.80;63.70
74809;DHT22;63338;39.544;2.596;2023-08-07T07:04:06;25.90;63.70
74809;DHT22;63338;39.544;2.596;2023-08-07T07:06:32;26.00;63.50
74809;DHT22;63338;39.544;2.596;2023-08-07T07:08:59;26.00;63.20
74809;DHT22;63338;39.544;2.596;2023-08-07T07:11:25;26.10;64.10
74809;DHT22;63338;39.544;2.596;2023-08-07T07:13:52;26.20;65.00
74809;DHT22;63338;39.544;2.596;2023-08-07T07:16:19;26.20;64.70
74809;DHT22;63338;39.544;2.596;2023-08-07T07:18:50;26.20;64.90
74809;DHT22;63338;39.544;2.596;2023-08-07T07:21:17;26.30;64.30
74809;DHT22;63338;39.544;2.596;2023-08-07T07:23:44;26.30;63.80
74809;DHT22;63338;39.544;2.596;2023-08-07T07:26:10;26.40;61.90
74809;DHT22;63338;39.544;2.596;2023-08-07T07:28:36;26.40;62.00
74809;DHT22;63338;39.544;2.596;2023-08-07T07:31:02;26.50;62.80
74809;DHT22;63338;39.544;2.596;2023-08-07T07:33:30;26.60;61.50
74809;DHT22;63338;39.544;2.596;2023-08-07T07:35:56;26.70;62.10
74809;DHT22;63338;39.544;2.596;2023-08-07T07:38:23;26.90;62.90
74809;DHT22;63338;39.544;2.596;2023-08-07T07:40:49;26.90;62.00
74809;DHT22;63338;39.544;2.596;2023-08-07T07:43:15;27.00;61.50
74809;DHT22;63338;39.544;2.596;2023-08-07T07:45:43;27.00;60.70
74809;DHT22;63338;39.544;2.596;2023-08-07T07:48:10;27.10;61.20
74809;DHT22;63338;39.544;2.596;2023-08-07T07:50:36;27.20;60.00
74809;DHT22;63338;39.544;2.596;2023-08-07T07:53:02;27.20;60.90
74809;DHT22;63338;39.544;2.596;2023-08-07T07:55:29;27.30;60.30
74809;DHT22;63338;39.544;2.596;2023-08-07T07:57:55;27.30;59.80
74809;DHT22;63338;39.544;2.596;2023-08-07T08:00:22;27.50;60.00
74809;DHT22;63338;39.544;2.596;2023-08-07T08:02:53;27.30;62.00
74809;DHT22;63338;39.544;2.596;2023-08-07T08:05:20;27.40;63.40
74809;DHT22;63338;39.544;2.596;2023-08-07T08:07:46;27.50;61.10
74809;DHT22;63338;39.544;2.596;2023-08-07T08:10:12;27.40;60.50
74809;DHT22;63338;39.544;2.596;2023-08-07T08:12:39;27.40;59.90
74809;DHT22;63338;39.544;2.596;2023-08-07T08:15:05;27.40;59.80
74809;DHT22;63338;39.544;2.596;2023-08-07T08:17:32;27.40;60.20
74809;DHT22;63338;39.544;2.596;2023-08-07T08:19:58;27.50;59.90
74809;DHT22;63338;39.544;2.596;2023-08-07T08:22:24;27.50;59.10
74809;DHT22;63338;39.544;2.596;2023-08-07T08:24:51;27.70;59.70
74809;DHT22;63338;39.544;2.596;2023-08-07T08:27:17;27.80;60.30
74809;DHT22;63338;39.544;2.596;2023-08-07T08:29:43;27.90;59.20
74809;DHT22;63338;39.544;2.596;2023-08-07T08:32:10;28.00;59.60
74809;DHT22;63338;39.544;2.596;2023-08-07T08:34:37;28.00;59.30
74809;DHT22;63338;39.544;2.596;2023-08-07T08:37:03;28.00;58.90
74809;DHT22;63338;39.544;2.596;2023-08-07T08:39:31;28.10;59.10
74809;DHT22;63338;39.544;2.596;2023-08-07T08:42:31;28.10;58.10
74809;DHT22;63338;39.544;2.596;2023-08-07T08:45:04;28.20;60.00
74809;DHT22;63338;39.544;2.596;2023-08-07T08:47:32;28.20;59.80
74809;DHT22;63338;39.544;2.596;2023-08-07T08:50:13;28.30;59.50
74809;DHT22;63338;39.544;2.596;2023-08-07T08:52:44;28.60;57.50
74809;DHT22;63338;39.544;2.596;2023-08-07T08:55:11;29.10;57.30
74809;DHT22;63338;39.544;2.596;2023-08-07T08:57:39;29.70;55.60
74809;DHT22;63338;39.544;2.596;2023-08-07T09:00:07;30.10;56.00
74809;DHT22;63338;39.544;2.596;2023-08-07T09:02:52;30.60;55.90
74809;DHT22;63338;39.544;2.596;2023-08-07T09:05:22;30.90;55.00
74809;DHT22;63338;39.544;2.596;2023-08-07T09:07:54;31.10;55.50
74809;DHT22;63338;39.544;2.596;2023-08-07T09:10:22;31.00;54.10
74809;DHT22;63338;39.544;2.596;2023-08-07T09:13:03;31.10;54.80
74809;DHT22;63338;39.544;2.596;2023-08-07T09:15:32;31.30;54.10
74809;DHT22;63338;39.544;2.596;2023-08-07T09:17:59;31.30;53.40
74809;DHT22;63338;39.544;2.596;2023-08-07T09:20:27;31.50;53.80
74809;DHT22;63338;39.544;2.596;2023-08-07T09:22:54;31.60;53.10
74809;DHT22;63338;39.544;2.596;2023-08-07T09:25:28;31.60;53.10
74809;DHT22;63338;39.544;2.596;2023-08-07T09:27:56;31.90;54.50
74809;DHT22;63338;39.544;2.596;2023-08-07T09:30:32;32.00;53.20
74809;DHT22;63338;39.544;2.596;2023-08-07T09:33:05;32.00;51.80
74809;DHT22;63338;39.544;2.596;2023-08-07T09:35:32;32.10;53.00
74809;DHT22;63338;39.544;2.596;2023-08-07T09:37:59;31.90;51.90
74809;DHT22;63338;39.544;2.596;2023-08-07T09:40:25;32.00;51.60
74809;DHT22;63338;39.544;2.596;2023-08-07T09:43:01;32.10;50.90
74809;DHT22;63338;39.544;2.596;2023-08-07T09:45:34;32.30;51.30
74809;DHT22;63338;39.544;2.596;2023-08-07T09:48:04;32.40;51.40
74809;DHT22;63338;39.544;2.596;2023-08-07T09:50:32;32.40;51.40
74809;DHT22;63338;39.544;2.596;2023-08-07T09:52:58;32.00;51.70
74809;DHT22;63338;39.544;2.596;2023-08-07T09:55:25;31.70;51.40
74809;DHT22;63338;39.544;2.596;2023-08-07T09:57:52;31.60;53.70
74809;DHT22;63338;39.544;2.596;2023-08-07T10:00:19;31.70;52.60
74809;DHT22;63338;39.544;2.596;2023-08-07T10:02:49;31.90;53.20
74809;DHT22;63338;39.544;2.596;2023-08-07T10:05:18;32.10;50.40
74809;DHT22;63338;39.544;2.596;2023-08-07T10:07:48;32.40;51.20
74809;DHT22;63338;39.544;2.596;2023-08-07T10:10:22;32.60;52.00
74809;DHT22;63338;39.544;2.596;2023-08-07T10:12:52;32.70;51.10
74809;DHT22;63338;39.544;2.596;2023-08-07T10:15:19;32.90;51.00
74809;DHT22;63338;39.544;2.596;2023-08-07T10:17:47;32.80;49.50
74809;DHT22;63338;39.544;2.596;2023-08-07T10:20:16;33.00;49.20
74809;DHT22;63338;39.544;2.596;2023-08-07T10:22:43;33.10;48.30
74809;DHT22;63338;39.544;2.596;2023-08-07T10:25:11;33.10;48.40
74809;DHT22;63338;39.544;2.596;2023-08-07T10:27:38;33.30;49.70
74809;DHT22;63338;39.544;2.596;2023-08-07T10:30:18;33.30;49.30
74809;DHT22;63338;39.544;2.596;2023-08-07T10:32:48;33.30;48.30
74809;DHT22;63338;39.544;2.596;2023-08-07T10:35:45;33.30;49.30
74809;DHT22;63338;39.544;2.596;2023-08-07T10:38:15;33.40;48.00
74809;DHT22;63338;39.544;2.596;2023-08-07T10:41:07;33.50;48.00
74809;DHT22;63338;39.544;2.596;2023-08-07T10:43:39;33.70;47.30
74809;DHT22;63338;39.544;2.596;2023-08-07T10:46:20;33.80;47.60
74809;DHT22;63338;39.544;2.596;2023-08-07T10:48:56;33.80;48.40
74809;DHT22;63338;39.544;2.596;2023-08-07T10:51:33;33.80;46.80
74809;DHT22;63338;39.544;2.596;2023-08-07T10:54:00;33.90;45.80
74809;DHT22;63338;39.544;2.596;2023-08-07T10:56:36;34.00;46.80
74809;DHT22;63338;39.544;2.596;2023-08-07T10:59:10;33.90;47.80
74809;DHT22;63338;39.544;2.596;2023-08-07T11:01:41;33.80;46.60
74809;DHT22;63338;39.544;2.596;2023-08-07T11:04:10;33.70;46.60
74809;DHT22;63338;39.544;2.596;2023-08-07T11:06:38;33.70;47.80
74809;DHT22;63338;39.544;2.596;2023-08-07T11:09:06;33.80;47.30
74809;DHT22;63338;39.544;2.596;2023-08-07T11:12:12;33.70;46.40
74809;DHT22;63338;39.544;2.596;2023-08-07T11:22:47;33.20;48.10
74809;DHT22;63338;39.544;2.596;2023-08-07T14:17:32;27.80;61.80
74809;DHT22;63338;39.544;2.596;2023-08-07T14:20:10;27.90;61.90
74809;DHT22;63338;39.544;2.596;2023-08-07T14:23:00;27.90;61.10
74809;DHT22;63338;39.544;2.596;2023-08-07T14:26:02;27.80;62.10
74809;DHT22;63338;39.544;2.596;2023-08-07T14:28:57;27.90;60.70
74809;DHT22;63338;39.544;2.596;2023-08-07T14:31:24;27.70;60.80
74809;DHT22;63338;39.544;2.596;2023-08-07T14:33:50;27.90;60.50
74809;DHT22;63338;39.544;2.596;2023-08-07T14:36:25;27.70;60.80
74809;DHT22;63338;39.544;2.596;2023-08-07T14:38:54;27.90;61.20
74809;DHT22;63338;39.544;2.596;2023-08-07T14:41:30;27.70;62.00
74809;DHT22;63338;39.544;2.596;2023-08-07T14:44:14;27.70;62.40
74809;DHT22;63338;39.544;2.596;2023-08-07T14:51:06;27.50;62.00
74809;DHT22;63338;39.544;2.596;2023-08-07T14:53:41;27.50;62.60
74809;DHT22;63338;39.544;2.596;2023-08-07T14:56:15;27.60;60.90
74809;DHT22;63338;39.544;2.596;2023-08-07T14:58:59;27.50;61.70
74809;DHT22;63338;39.544;2.596;2023-08-07T15:01:29;27.50;61.50
74809;DHT22;63338;39.544;2.596;2023-08-07T15:04:01;27.40;61.20
74809;DHT22;63338;39.544;2.596;2023-08-07T15:07:36;27.40;62.70
74809;DHT22;63338;39.544;2.596;2023-08-07T15:10:03;27.50;63.50
74809;DHT22;63338;39.544;2.596;2023-08-07T15:12:51;27.50;62.60
74809;DHT22;63338;39.544;2.596;2023-08-07T15:18:36;27.60;61.90
74809;DHT22;63338;39.544;2.596;2023-08-07T15:21:17;27.50;63.20
74809;DHT22;63338;39.544;2.596;2023-08-07T15:23:47;27.50;61.90
74809;DHT22;63338;39.544;2.596;2023-08-07T15:26:16;27.60;61.90
74809;DHT22;63338;39.544;2.596;2023-08-07T15:28:54;27.50;61.20
74809;DHT22;63338;39.544;2.596;2023-08-07T15:31:30;27.50;61.20
74809;DHT22;63338;39.544;2.596;2023-08-07T15:34:09;27.40;60.60
74809;DHT22;63338;39.544;2.596;2023-08-07T15:36:39;27.40;61.50
74809;DHT22;63338;39.544;2.596;2023-08-07T15:39:11;27.40;61.90
74809;DHT22;63338;39.544;2.596;2023-08-07T15:44:31;27.40;62.50
74809;DHT22;63338;39.544;2.596;2023-08-07T15:49:43;27.30;62.90
74809;DHT22;63338;39.544;2.596;2023-08-07T15:52:31;27.30;62.40
74809;DHT22;63338;39.544;2.596;2023-08-07T15:55:01;27.40;62.00
74809;DHT22;63338;39.544;2.596;2023-08-07T15:57:33;27.40;61.80
74809;DHT22;63338;39.544;2.596;2023-08-07T16:00:13;27.40;61.60
74809;DHT22;63338;39.544;2.596;2023-08-07T16:02:56;27.50;62.00
74809;DHT22;63338;39.544;2.596;2023-08-07T16:06:12;27.40;62.80
74809;DHT22;63338;39.544;2.596;2023-08-07T16:08:57;27.40;62.40
74809;DHT22;63338;39.544;2.596;2023-08-07T16:11:28;27.30;61.50
74809;DHT22;63338;39.544;2.596;2023-08-07T16:14:13;27.30;62.10
74809;DHT22;63338;39.544;2.596;2023-08-07T16:16:51;27.30;62.50
74809;DHT22;63338;39.544;2.596;2023-08-07T16:23:05;27.40;62.20
74809;DHT22;63338;39.544;2.596;2023-08-07T16:25:41;27.40;62.70
74809;DHT22;63338;39.544;2.596;2023-08-07T16:28:10;27.30;62.10
74809;DHT22;63338;39.544;2.596;2023-08-07T16:31:04;27.30;62.40
74809;DHT22;63338;39.544;2.596;2023-08-07T16:34:11;27.20;62.90
74809;DHT22;63338;39.544;2.596;2023-08-07T16:37:08;27.20;62.90
74809;DHT22;63338;39.544;2.596;2023-08-07T16:39:36;27.20;63.40
74809;DHT22;63338;39.544;2.596;2023-08-07T16:42:11;27.10;62.60
74809;DHT22;63338;39.544;2.596;2023-08-07T16:44:44;27.10;62.30
74809;DHT22;63338;39.544;2.596;2023-08-07T16:47:13;27.10;62.80
74809;DHT22;63338;39.544;2.596;2023-08-07T16:49:43;27.20;62.50
74809;DHT22;63338;39.544;2.596;2023-08-07T16:52:13;27.10;62.80
74809;DHT22;63338;39.544;2.596;2023-08-07T16:55:30;27.10;62.80
74809;DHT22;63338;39.544;2.596;2023-08-07T16:58:06;27.00;62.60
74809;DHT22;63338;39.544;2.596;2023-08-07T17:00:41;27.00;63.00
74809;DHT22;63338;39.544;2.596;2023-08-07T17:03:17;27.10;63.10
74809;DHT22;63338;39.544;2.596;2023-08-07T17:06:00;27.00;62.70
74809;DHT22;63338;39.544;2.596;2023-08-07T17:08:27;27.10;63.00
74809;DHT22;63338;39.544;2.596;2023-08-07T17:10:53;26.90;63.60
74809;DHT22;63338;39.544;2.596;2023-08-07T17:14:13;27.00;63.00
74809;DHT22;63338;39.544;2.596;2023-08-07T17:16:49;27.00;62.30
74809;DHT22;63338;39.544;2.596;2023-08-07T17:19:31;27.00;62.40
74809;DHT22;63338;39.544;2.596;2023-08-07T17:21:57;26.90;63.10
74809;DHT22;63338;39.544;2.596;2023-08-07T17:24:31;26.90;63.10
74809;DHT22;63338;39.544;2.596;2023-08-07T17:26:59;26.90;63.20
74809;DHT22;63338;39.544;2.596;2023-08-07T17:29:26;26.90;63.30
74809;DHT22;63338;39.544;2.596;2023-08-07T17:31:58;26.90;63.10
74809;DHT22;63338;39.544;2.596;2023-08-07T17:35:02;26.80;63.10
74809;DHT22;63338;39.544;2.596;2023-08-07T17:40:34;26.90;63.20
74809;DHT22;63338;39.544;2.596;2023-08-07T17:43:48;26.80;62.90
74809;DHT22;63338;39.544;2.596;2023-08-07T17:46:16;26.80;63.20
74809;DHT22;63338;39.544;2.596;2023-08-07T17:48:42;26.90;63.30
74809;DHT22;63338;39.544;2.596;2023-08-07T17:51:11;26.80;63.20
74809;DHT22;63338;39.544;2.596;2023-08-07T17:53:41;26.80;63.20
74809;DHT22;63338;39.544;2.596;2023-08-07T17:56:08;26.70;63.30
74809;DHT22;63338;39.544;2.596;2023-08-07T17:58:34;26.60;63.60
74809;DHT22;63338;39.544;2.596;2023-08-07T18:01:02;26.60;63.70
74809;DHT22;63338;39.544;2.596;2023-08-07T18:03:31;26.50;63.90
74809;DHT22;63338;39.544;2.596;2023-08-07T18:05:57;26.60;64.30
74809;DHT22;63338;39.544;2.596;2023-08-07T18:08:23;26.50;64.50
74809;DHT22;63338;39.544;2.596;2023-08-07T18:10:50;26.40;64.40
74809;DHT22;63338;39.544;2.596;2023-08-07T18:13:16;26.40;64.70
74809;DHT22;63338;39.544;2.596;2023-08-07T18:15:42;26.50;64.70
74809;DHT22;63338;39.544;2.596;2023-08-07T18:18:08;26.30;65.20
74809;DHT22;63338;39.544;2.596;2023-08-07T18:20:34;26.30;65.90
74809;DHT22;63338;39.544;2.596;2023-08-07T18:23:00;26.30;65.60
74809;DHT22;63338;39.544;2.596;2023-08-07T18:25:26;26.20;65.60
74809;DHT22;63338;39.544;2.596;2023-08-07T18:27:52;26.30;65.90
74809;DHT22;63338;39.544;2.596;2023-08-07T18:30:22;26.20;65.50
74809;DHT22;63338;39.544;2.596;2023-08-07T18:32:53;26.20;66.00
74809;DHT22;63338;39.544;2.596;2023-08-07T18:35:20;26.20;66.70
74809;DHT22;63338;39.544;2.596;2023-08-07T18:37:49;26.20;67.90
74809;DHT22;63338;39.544;2.596;2023-08-07T18:40:15;26.20;67.00
74809;DHT22;63338;39.544;2.596;2023-08-07T18:42:42;26.20;66.90
74809;DHT22;63338;39.544;2.596;2023-08-07T18:45:09;26.10;66.50
74809;DHT22;63338;39.544;2.596;2023-08-07T18:47:35;26.10;66.50
74809;DHT22;63338;39.544;2.596;2023-08-07T18:50:02;26.10;67.50
74809;DHT22;63338;39.544;2.596;2023-08-07T18:52:28;26.00;67.70
74809;DHT22;63338;39.544;2.596;2023-08-07T18:54:54;26.00;66.80
74809;DHT22;63338;39.544;2.596;2023-08-07T18:57:21;25.80;66.40
74809;DHT22;63338;39.544;2.596;2023-08-07T18:59:47;26.00;67.40
74809;DHT22;63338;39.544;2.596;2023-08-07T19:02:13;25.90;67.80
74809;DHT22;63338;39.544;2.596;2023-08-07T19:04:43;25.80;67.80
74809;DHT22;63338;39.544;2.596;2023-08-07T19:07:10;25.90;67.60
74809;DHT22;63338;39.544;2.596;2023-08-07T19:09:36;25.80;68.00
74809;DHT22;63338;39.544;2.596;2023-08-07T19:12:02;25.90;69.70
74809;DHT22;63338;39.544;2.596;2023-08-07T19:14:29;25.80;67.80
74809;DHT22;63338;39.544;2.596;2023-08-07T19:16:58;25.90;67.80